createdAt,value
2019-03-19T00:00:43.739Z,70.70
2019-03-19T00:02:50.980Z,71.40
2019-03-19T00:04:56.325Z,71.30
2019-03-19T00:07:01.682Z,71.70
2019-03-19T00:09:07.106Z,72.20
2019-03-19T00:11:12.473Z,72.10
2019-03-19T00:13:17.822Z,72.10
2019-03-19T00:15:23.251Z,72.50
2019-03-19T00:17:29.493Z,74.10
2019-03-19T00:19:34.841Z,72.90
2019-03-19T00:21:40.194Z,72.80
2019-03-19T00:23:45.538Z,72.50
2019-03-19T00:25:53.095Z,72.70
2019-03-19T00:27:57.849Z,72.40
2019-03-19T00:30:03.196Z,72.70
2019-03-19T00:32:08.525Z,71.70
2019-03-19T00:34:13.868Z,71.60
2019-03-19T00:36:19.196Z,72.20
2019-03-19T00:38:24.531Z,71.90
2019-03-19T00:40:29.870Z,71.40
2019-03-19T00:42:35.207Z,71.20
2019-03-19T00:44:40.534Z,71.20
2019-03-19T00:46:45.884Z,71.10
2019-03-19T00:48:51.213Z,72.00
2019-03-19T00:50:56.554Z,72.20
2019-03-19T00:53:01.905Z,71.30
2019-03-19T00:55:07.664Z,71.90
2019-03-19T00:57:13.001Z,72.50
2019-03-19T00:59:18.641Z,72.60
2019-03-19T01:01:23.969Z,72.70
2019-03-19T01:03:29.305Z,73.00
2019-03-19T01:05:34.648Z,73.10
2019-03-19T01:07:39.982Z,73.50
2019-03-19T01:09:45.310Z,73.50
2019-03-19T01:11:50.651Z,74.10
2019-03-19T01:13:55.975Z,74.00
2019-03-19T01:16:01.316Z,75.40
2019-03-19T01:18:06.655Z,74.60
2019-03-19T01:20:18.230Z,75.00
2019-03-19T01:22:23.556Z,75.40
2019-03-19T01:24:28.900Z,75.40
2019-03-19T01:26:34.229Z,75.50
2019-03-19T01:28:39.562Z,75.70
2019-03-19T01:30:44.909Z,75.90
2019-03-19T01:32:50.238Z,76.10
2019-03-19T01:34:55.576Z,76.20
2019-03-19T01:37:00.942Z,76.30
2019-03-19T01:39:07.097Z,76.30
2019-03-19T01:41:12.497Z,76.20
2019-03-19T01:43:17.827Z,76.10
2019-03-19T01:45:23.161Z,75.60
2019-03-19T01:47:28.502Z,75.10
2019-03-19T01:49:33.843Z,75.10
2019-03-19T01:51:40.246Z,75.50
2019-03-19T01:53:45.580Z,75.80
2019-03-19T01:55:50.937Z,75.70
2019-03-19T01:57:56.257Z,76.70
2019-03-19T02:00:01.625Z,76.70
2019-03-19T02:02:07.316Z,76.30
2019-03-19T02:04:12.722Z,75.70
2019-03-19T02:06:18.048Z,74.90
2019-03-19T02:08:23.416Z,75.10
2019-03-19T02:10:28.748Z,74.50
2019-03-19T02:12:34.072Z,74.50
2019-03-19T02:14:39.529Z,74.40
2019-03-19T02:16:44.860Z,74.50
2019-03-19T02:18:50.194Z,74.50
2019-03-19T02:20:55.714Z,74.50
2019-03-19T02:23:01.037Z,74.80
2019-03-19T02:25:08.909Z,74.80
2019-03-19T02:27:14.266Z,74.80
2019-03-19T02:29:19.601Z,75.10
2019-03-19T02:31:24.926Z,74.80
2019-03-19T02:33:30.276Z,74.60
2019-03-19T02:35:35.606Z,74.70
2019-03-19T02:37:40.938Z,75.00
2019-03-19T02:39:46.297Z,75.40
2019-03-19T02:41:51.626Z,75.30
2019-03-19T02:43:56.953Z,75.90
2019-03-19T02:46:02.292Z,75.40
2019-03-19T02:48:07.640Z,75.20
2019-03-19T02:50:17.151Z,75.20
2019-03-19T02:52:22.524Z,75.50
2019-03-19T02:54:27.856Z,76.60
2019-03-19T02:56:34.279Z,76.80
2019-03-19T02:58:39.604Z,77.20
2019-03-19T03:00:44.949Z,77.60
2019-03-19T03:02:51.357Z,78.40
2019-03-19T03:04:56.688Z,78.70
2019-03-19T03:07:02.020Z,79.50
2019-03-19T03:09:07.349Z,80.10
2019-03-19T03:11:12.697Z,79.90
2019-03-19T03:13:18.029Z,80.10
2019-03-19T03:15:23.364Z,79.80
2019-03-19T03:17:28.714Z,79.30
2019-03-19T03:19:34.049Z,78.80
2019-03-19T03:21:39.394Z,78.70
2019-03-19T03:23:45.909Z,78.80
2019-03-19T03:25:51.262Z,79.10
2019-03-19T03:27:56.582Z,79.90
2019-03-19T03:30:01.930Z,80.10
2019-03-19T03:32:07.284Z,80.20
2019-03-19T03:34:12.683Z,80.20
2019-03-19T03:36:18.041Z,80.20
2019-03-19T03:38:23.417Z,79.90
2019-03-19T03:40:28.762Z,79.80
2019-03-19T03:42:34.104Z,79.80
2019-03-19T03:44:39.441Z,79.50
2019-03-19T03:46:44.776Z,79.00
2019-03-19T03:48:50.130Z,78.60
2019-03-19T03:50:55.471Z,78.70
2019-03-19T03:53:00.845Z,78.70
2019-03-19T03:55:09.221Z,78.60
2019-03-19T03:57:14.560Z,78.60
2019-03-19T03:59:19.898Z,78.60
2019-03-19T04:01:25.236Z,78.80
2019-03-19T04:03:30.564Z,78.90
2019-03-19T04:05:35.942Z,79.20
2019-03-19T04:08:00.725Z,79.40
2019-03-19T04:10:06.982Z,79.40
2019-03-19T04:12:12.156Z,79.70
2019-03-19T04:14:17.481Z,79.60
2019-03-19T04:16:22.838Z,80.10
2019-03-19T04:18:47.626Z,80.00
2019-03-19T04:20:52.274Z,80.50
2019-03-19T04:22:57.421Z,80.50
2019-03-19T04:25:02.775Z,80.80
2019-03-19T04:27:15.761Z,81.70
2019-03-19T04:29:15.075Z,81.40
2019-03-19T04:31:20.434Z,81.30
2019-03-19T04:33:25.765Z,81.10
2019-03-19T04:35:31.100Z,80.70
2019-03-19T04:37:36.436Z,80.90
2019-03-19T04:39:41.782Z,81.20
2019-03-19T04:41:47.110Z,81.20
2019-03-19T04:43:52.443Z,81.80
2019-03-19T04:46:09.976Z,81.70
2019-03-19T04:48:15.315Z,81.00
2019-03-19T04:50:20.682Z,80.80
2019-03-19T04:52:26.008Z,80.80
2019-03-19T04:54:31.357Z,80.50
2019-03-19T04:56:36.697Z,80.30
2019-03-19T04:58:42.028Z,80.30
2019-03-19T05:00:47.367Z,80.20
2019-03-19T05:02:52.724Z,80.30
2019-03-19T05:04:58.100Z,80.30
2019-03-19T05:07:03.433Z,80.90
2019-03-19T05:09:08.777Z,81.50
2019-03-19T05:11:14.142Z,81.90
2019-03-19T05:13:19.481Z,81.80
2019-03-19T05:15:24.805Z,81.90
2019-03-19T05:17:30.148Z,81.90
2019-03-19T05:19:35.492Z,82.00
2019-03-19T05:21:40.824Z,82.20
2019-03-19T05:23:46.216Z,82.20
2019-03-19T05:25:51.508Z,82.00
2019-03-19T05:27:56.844Z,81.70
2019-03-19T05:30:02.252Z,81.50
2019-03-19T05:32:07.604Z,81.20
2019-03-19T05:34:12.948Z,81.30
2019-03-19T05:36:18.289Z,80.80
2019-03-19T05:38:23.624Z,80.60
2019-03-19T05:40:28.960Z,80.50
2019-03-19T05:42:34.310Z,80.60
2019-03-19T05:44:39.648Z,80.90
2019-03-19T05:46:44.983Z,80.60
2019-03-19T05:48:50.327Z,80.70
2019-03-19T05:50:55.669Z,80.80
2019-03-19T05:53:01.015Z,80.70
2019-03-19T05:55:08.110Z,80.60
2019-03-19T05:57:13.480Z,80.70
2019-03-19T05:59:18.875Z,80.90
2019-03-19T06:01:24.157Z,80.60
2019-03-19T06:03:29.981Z,80.70
2019-03-19T06:05:35.312Z,80.40
2019-03-19T06:07:40.656Z,80.40
2019-03-19T06:09:46.006Z,80.40
2019-03-19T06:11:51.338Z,80.50
2019-03-19T06:13:56.672Z,80.40
2019-03-19T06:16:02.030Z,80.00
2019-03-19T06:18:07.360Z,79.90
2019-03-19T06:20:14.899Z,79.40
2019-03-19T06:22:20.247Z,78.90
2019-03-19T06:24:25.573Z,77.90
2019-03-19T06:26:30.916Z,76.00
2019-03-19T06:28:36.269Z,75.20
2019-03-19T06:30:41.598Z,74.40
2019-03-19T06:32:46.934Z,73.20
2019-03-19T06:34:52.285Z,72.00
2019-03-19T06:36:58.684Z,70.50
2019-03-19T06:39:05.704Z,69.50
2019-03-19T06:41:11.061Z,69.30
2019-03-19T06:43:16.434Z,69.10
2019-03-19T06:45:23.200Z,67.90
2019-03-19T06:47:28.856Z,67.10
2019-03-19T06:49:34.199Z,65.60
2019-03-19T06:51:39.542Z,64.40
2019-03-19T06:53:44.896Z,63.80
2019-03-19T06:55:50.240Z,62.00
2019-03-19T06:57:55.582Z,60.20
2019-03-19T07:00:00.917Z,58.90
2019-03-19T07:02:06.285Z,58.00
2019-03-19T07:04:11.629Z,58.10
2019-03-19T07:06:16.973Z,58.20
2019-03-19T07:08:22.320Z,57.80
2019-03-19T07:10:27.660Z,57.00
2019-03-19T07:12:32.995Z,56.00
2019-03-19T07:14:38.335Z,55.00
2019-03-19T07:16:43.676Z,54.50
2019-03-19T07:18:49.013Z,54.10
2019-03-19T07:20:54.360Z,52.70
2019-03-19T07:22:59.687Z,52.20
2019-03-19T07:25:05.990Z,50.90
2019-03-19T07:27:11.376Z,50.20
2019-03-19T07:29:16.716Z,51.40
2019-03-19T07:31:30.413Z,52.40
2019-03-19T07:33:29.045Z,50.20
2019-03-19T07:35:34.400Z,50.20
2019-03-19T07:37:39.767Z,48.50
2019-03-19T07:39:45.106Z,48.10
2019-03-19T07:41:50.460Z,48.90
2019-03-19T07:43:55.813Z,50.70
2019-03-19T07:46:01.152Z,49.20
2019-03-19T07:48:06.526Z,49.80
2019-03-19T07:50:16.863Z,48.50
2019-03-19T07:52:22.217Z,46.90
2019-03-19T07:54:27.564Z,47.60
2019-03-19T07:56:32.924Z,48.50
2019-03-19T07:58:45.270Z,47.90
2019-03-19T08:00:45.269Z,47.20
2019-03-19T08:02:50.621Z,48.50
2019-03-19T08:04:55.977Z,49.00
2019-03-19T08:07:01.320Z,49.80
2019-03-19T08:09:07.078Z,49.40
2019-03-19T08:11:13.142Z,49.40
2019-03-19T08:13:19.704Z,51.30
2019-03-19T08:15:25.041Z,52.70
2019-03-19T08:17:30.402Z,54.80
2019-03-19T08:19:36.812Z,54.60
2019-03-19T08:21:43.213Z,55.90
2019-03-19T08:23:48.562Z,53.40
2019-03-19T08:25:53.897Z,53.00
2019-03-19T08:27:59.229Z,52.10
2019-03-19T08:30:10.941Z,53.80
2019-03-19T08:32:16.258Z,54.10
2019-03-19T08:34:21.588Z,52.60
2019-03-19T08:36:26.941Z,52.40
2019-03-19T08:38:33.333Z,51.90
2019-03-19T08:40:38.679Z,53.00
2019-03-19T08:42:44.036Z,53.20
2019-03-19T08:44:49.364Z,52.60
2019-03-19T08:46:54.698Z,51.90
2019-03-19T08:49:00.041Z,51.80
2019-03-19T08:51:05.369Z,51.70
2019-03-19T08:53:10.705Z,51.50
2019-03-19T08:55:16.067Z,52.30
2019-03-19T08:57:21.636Z,51.50
2019-03-19T08:59:26.969Z,50.70
2019-03-19T09:01:32.328Z,53.00
2019-03-19T09:03:37.664Z,54.70
2019-03-19T09:05:43.002Z,52.60
2019-03-19T09:07:48.354Z,52.20
2019-03-19T09:09:53.680Z,50.60
2019-03-19T09:11:59.011Z,52.10
2019-03-19T09:14:04.370Z,53.80
2019-03-19T09:16:09.693Z,55.30
2019-03-19T09:18:16.152Z,56.40
2019-03-19T09:20:21.677Z,55.50
2019-03-19T09:22:29.883Z,56.30
2019-03-19T09:24:33.974Z,56.10
2019-03-19T09:26:39.304Z,57.10
2019-03-19T09:28:44.635Z,57.40
2019-03-19T09:30:49.980Z,55.40
2019-03-19T09:32:55.312Z,56.10
2019-03-19T09:35:00.652Z,54.80
2019-03-19T09:37:05.992Z,54.20
2019-03-19T09:39:11.331Z,54.00
2019-03-19T09:41:16.667Z,54.70
2019-03-19T09:43:22.013Z,54.70
2019-03-19T09:45:27.347Z,55.40
2019-03-19T09:47:32.750Z,56.00
2019-03-19T09:49:38.139Z,55.20
2019-03-19T09:51:43.498Z,56.60
2019-03-19T09:53:48.830Z,56.90
2019-03-19T09:55:54.185Z,56.20
2019-03-19T09:57:59.721Z,55.90
2019-03-19T10:00:16.455Z,56.60
2019-03-19T10:02:23.823Z,56.80
2019-03-19T10:04:28.750Z,56.80
2019-03-19T10:06:34.080Z,57.10
2019-03-19T10:08:39.445Z,57.70
2019-03-19T10:10:44.896Z,56.40
2019-03-19T10:13:02.300Z,54.80
2019-03-19T10:15:09.009Z,53.80
2019-03-19T10:17:14.379Z,55.00
2019-03-19T10:19:19.727Z,54.70
2019-03-19T10:21:25.179Z,53.20
2019-03-19T10:23:30.514Z,53.30
2019-03-19T10:25:37.945Z,53.60
2019-03-19T10:27:42.834Z,54.60
2019-03-19T10:29:48.168Z,55.00
2019-03-19T10:31:53.506Z,55.40
2019-03-19T10:33:58.846Z,55.50
2019-03-19T10:36:04.180Z,56.70
2019-03-19T10:38:09.505Z,57.20
2019-03-19T10:40:34.298Z,55.40
2019-03-19T10:42:38.936Z,55.10
2019-03-19T10:44:44.056Z,53.00
2019-03-19T10:46:49.393Z,51.20
2019-03-19T10:48:54.710Z,51.10
2019-03-19T10:51:00.049Z,51.40
2019-03-19T10:53:05.381Z,51.20
2019-03-19T10:55:10.720Z,49.60
2019-03-19T10:57:16.081Z,48.10
2019-03-19T10:59:21.411Z,49.00
2019-03-19T11:01:26.755Z,50.00
2019-03-19T11:03:32.249Z,49.70
2019-03-19T11:05:37.569Z,51.60
2019-03-19T11:07:42.906Z,51.50
2019-03-19T11:09:48.236Z,51.30
2019-03-19T11:11:53.582Z,51.60
2019-03-19T11:13:58.913Z,51.00
2019-03-19T11:16:04.277Z,52.70
2019-03-19T11:18:10.673Z,53.00
2019-03-19T11:20:17.345Z,52.90
2019-03-19T11:22:23.765Z,49.70
2019-03-19T11:24:29.158Z,50.20
2019-03-19T11:26:34.573Z,49.70
2019-03-19T11:28:39.892Z,50.40
2019-03-19T11:30:45.248Z,50.60
2019-03-19T11:32:50.585Z,50.20
2019-03-19T11:34:55.935Z,50.80
2019-03-19T11:37:02.344Z,52.20
2019-03-19T11:39:08.511Z,52.70
2019-03-19T11:41:13.841Z,54.80
2019-03-19T11:43:19.178Z,54.60
2019-03-19T11:45:24.939Z,54.80
2019-03-19T11:47:30.337Z,55.20
2019-03-19T11:49:35.664Z,55.70
2019-03-19T11:51:41.005Z,56.60
2019-03-19T11:53:46.366Z,56.10
2019-03-19T11:55:51.694Z,54.70
2019-03-19T11:57:57.811Z,55.80
2019-03-19T12:00:11.046Z,55.10
2019-03-19T12:02:12.641Z,51.10
2019-03-19T12:04:17.981Z,50.50
2019-03-19T12:06:24.492Z,51.40
2019-03-19T12:08:29.829Z,52.10
2019-03-19T12:10:35.173Z,48.80
2019-03-19T12:12:40.515Z,48.80
2019-03-19T12:14:47.317Z,50.90
2019-03-19T12:16:52.983Z,50.90
2019-03-19T12:18:58.329Z,52.20
2019-03-19T12:21:03.660Z,52.20
2019-03-19T12:23:10.076Z,52.40
2019-03-19T12:25:15.428Z,50.90
2019-03-19T12:27:20.910Z,48.60
2019-03-19T12:29:26.242Z,49.90
2019-03-19T12:31:31.960Z,48.10
2019-03-19T12:33:41.116Z,48.10
2019-03-19T12:35:44.298Z,45.80
2019-03-19T12:37:49.649Z,47.20
2019-03-19T12:39:54.985Z,48.80
2019-03-19T12:42:00.340Z,47.60
2019-03-19T12:44:05.705Z,45.00
2019-03-19T12:46:11.018Z,41.30
2019-03-19T12:48:16.424Z,44.70
2019-03-19T12:50:26.474Z,46.30
2019-03-19T12:52:31.804Z,47.40
2019-03-19T12:54:37.994Z,45.90
2019-03-19T12:56:43.398Z,45.10
2019-03-19T12:58:48.716Z,45.80
2019-03-19T13:00:54.054Z,43.60
2019-03-19T13:02:59.437Z,42.80
2019-03-19T13:05:06.593Z,44.00
2019-03-19T13:07:11.989Z,45.40
2019-03-19T13:09:18.574Z,47.80
2019-03-19T13:11:23.865Z,45.20
2019-03-19T13:13:29.228Z,46.10
2019-03-19T13:15:34.557Z,47.70
2019-03-19T13:17:39.890Z,47.90
2019-03-19T13:19:45.247Z,47.90
2019-03-19T13:21:50.595Z,46.80
2019-03-19T13:23:55.924Z,47.40
2019-03-19T13:26:01.287Z,48.40
2019-03-19T13:28:06.626Z,46.90
2019-03-19T13:30:17.195Z,47.50
2019-03-19T13:32:22.536Z,46.20
2019-03-19T13:34:28.007Z,46.40
2019-03-19T13:36:33.337Z,46.50
2019-03-19T13:38:38.688Z,44.90
2019-03-19T13:40:44.183Z,45.00
2019-03-19T13:42:49.510Z,46.70
2019-03-19T13:44:54.841Z,49.40
2019-03-19T13:47:00.189Z,46.50
2019-03-19T13:49:05.523Z,46.70
2019-03-19T13:51:10.860Z,46.90
2019-03-19T13:53:16.202Z,46.70
2019-03-19T13:55:22.567Z,47.70
2019-03-19T13:57:27.914Z,50.40
2019-03-19T13:59:35.829Z,47.50
2019-03-19T14:01:40.253Z,48.40
2019-03-19T14:03:45.582Z,49.90
2019-03-19T14:05:50.993Z,48.60
2019-03-19T14:07:56.320Z,47.40
2019-03-19T14:10:01.662Z,47.10
2019-03-19T14:12:07.005Z,47.20
2019-03-19T14:14:12.373Z,47.60
2019-03-19T14:16:17.712Z,46.90
2019-03-19T14:18:23.052Z,47.90
2019-03-19T14:20:28.390Z,49.00
2019-03-19T14:22:33.725Z,48.10
2019-03-19T14:24:39.086Z,48.60
2019-03-19T14:26:44.413Z,49.70
2019-03-19T14:28:49.753Z,49.30
2019-03-19T14:31:07.678Z,48.90
2019-03-19T14:33:02.062Z,48.50
2019-03-19T14:35:08.547Z,49.50
2019-03-19T14:37:14.058Z,48.50
2019-03-19T14:39:19.402Z,48.10
2019-03-19T14:41:24.745Z,48.00
2019-03-19T14:43:30.117Z,49.30
2019-03-19T14:45:35.469Z,47.60
2019-03-19T14:47:40.865Z,48.80
2019-03-19T14:49:48.780Z,49.50
2019-03-19T14:51:53.183Z,48.80
2019-03-19T14:53:58.524Z,48.80
2019-03-19T14:56:03.870Z,48.10
2019-03-19T14:58:09.209Z,48.40
2019-03-19T15:00:22.040Z,47.90
2019-03-19T15:02:27.387Z,48.10
2019-03-19T15:04:32.725Z,47.50
2019-03-19T15:06:38.074Z,48.50
2019-03-19T15:08:43.411Z,48.90
2019-03-19T15:10:48.752Z,48.10
2019-03-19T15:12:54.126Z,49.60
2019-03-19T15:14:59.464Z,49.50
2019-03-19T15:17:05.360Z,49.10
2019-03-19T15:19:10.852Z,49.00
2019-03-19T15:21:16.271Z,47.70
2019-03-19T15:23:21.724Z,47.30
2019-03-19T15:25:27.051Z,46.90
2019-03-19T15:27:32.408Z,46.40
2019-03-19T15:29:37.799Z,46.30
2019-03-19T15:31:43.140Z,46.50
2019-03-19T15:33:48.480Z,46.60
2019-03-19T15:35:53.806Z,47.50
2019-03-19T15:37:59.142Z,48.10
2019-03-19T15:40:07.108Z,47.10
2019-03-19T15:42:12.462Z,47.30
2019-03-19T15:44:17.824Z,49.10
2019-03-19T15:46:23.170Z,47.20
2019-03-19T15:48:28.515Z,47.80
2019-03-19T15:50:33.856Z,48.20
2019-03-19T15:52:39.181Z,47.50
2019-03-19T15:54:45.496Z,47.80
2019-03-19T15:56:50.849Z,47.80
2019-03-19T15:58:56.192Z,47.30
2019-03-19T16:01:01.605Z,47.10
2019-03-19T16:03:06.946Z,48.00
2019-03-19T16:05:13.129Z,47.40
2019-03-19T16:07:18.482Z,47.80
2019-03-19T16:09:23.843Z,47.50
2019-03-19T16:11:29.184Z,47.80
2019-03-19T16:13:34.580Z,48.80
2019-03-19T16:15:39.920Z,48.60
2019-03-19T16:17:45.260Z,49.20
2019-03-19T16:19:50.589Z,50.20
2019-03-19T16:21:55.935Z,49.10
2019-03-19T16:24:01.262Z,49.80
2019-03-19T16:26:06.608Z,49.30
2019-03-19T16:28:11.944Z,49.10
2019-03-19T16:30:19.378Z,49.30
2019-03-19T16:32:24.777Z,50.70
2019-03-19T16:34:30.226Z,50.80
2019-03-19T16:36:35.565Z,51.00
2019-03-19T16:38:41.982Z,50.80
2019-03-19T16:40:47.346Z,51.00
2019-03-19T16:42:52.677Z,50.50
2019-03-19T16:44:58.012Z,50.70
2019-03-19T16:47:03.410Z,50.50
2019-03-19T16:49:08.744Z,51.30
2019-03-19T16:51:14.100Z,51.40
2019-03-19T16:53:19.477Z,51.30
2019-03-19T16:55:24.830Z,51.10
2019-03-19T16:57:30.184Z,51.40
2019-03-19T16:59:35.565Z,51.90
2019-03-19T17:01:42.049Z,51.40
2019-03-19T17:03:47.557Z,51.80
2019-03-19T17:05:53.993Z,51.80
2019-03-19T17:07:59.668Z,51.40
2019-03-19T17:10:08.276Z,52.10
2019-03-19T17:12:13.639Z,52.80
2019-03-19T17:14:18.996Z,53.00
2019-03-19T17:16:24.342Z,52.60
2019-03-19T17:18:29.704Z,53.70
2019-03-19T17:20:35.045Z,53.50
2019-03-19T17:22:40.396Z,53.40
2019-03-19T17:24:45.807Z,53.70
2019-03-19T17:26:51.202Z,53.00
2019-03-19T17:28:56.548Z,53.60
2019-03-19T17:31:01.939Z,53.60
2019-03-19T17:33:07.449Z,55.00
2019-03-19T17:35:12.804Z,55.10
2019-03-19T17:37:18.255Z,54.80
2019-03-19T17:39:23.604Z,54.70
2019-03-19T17:41:28.955Z,54.80
2019-03-19T17:43:34.315Z,57.10
2019-03-19T17:45:39.653Z,56.00
2019-03-19T17:47:45.073Z,55.40
2019-03-19T17:49:53.325Z,56.50
2019-03-19T17:51:59.736Z,56.60
2019-03-19T17:54:05.094Z,56.80
2019-03-19T17:56:27.300Z,56.80
2019-03-19T17:58:32.649Z,56.80
2019-03-19T18:00:42.605Z,57.60
2019-03-19T18:02:47.957Z,57.20
2019-03-19T18:04:53.298Z,57.60
2019-03-19T18:06:58.637Z,58.40
2019-03-19T18:09:06.310Z,58.50
2019-03-19T18:11:11.652Z,58.40
2019-03-19T18:13:17.001Z,59.10
2019-03-19T18:15:22.369Z,59.70
2019-03-19T18:17:27.700Z,60.00
2019-03-19T18:19:33.052Z,59.80
2019-03-19T18:21:38.416Z,60.10
2019-03-19T18:23:43.760Z,60.10
2019-03-19T18:25:49.095Z,60.40
2019-03-19T18:27:55.520Z,60.50
2019-03-19T18:30:00.856Z,60.70
2019-03-19T18:32:06.296Z,60.80
2019-03-19T18:34:11.701Z,61.10
2019-03-19T18:36:17.064Z,61.20
2019-03-19T18:38:22.389Z,60.50
2019-03-19T18:40:29.355Z,60.10
2019-03-19T18:42:34.729Z,60.00
2019-03-19T18:44:40.056Z,60.60
2019-03-19T18:46:45.396Z,61.10
2019-03-19T18:48:50.769Z,61.40
2019-03-19T18:50:56.172Z,61.40
2019-03-19T18:53:01.521Z,61.90
2019-03-19T18:55:07.735Z,61.50
2019-03-19T18:57:13.068Z,60.80
2019-03-19T18:59:19.487Z,61.50
2019-03-19T19:01:24.851Z,61.60
2019-03-19T19:03:30.180Z,61.70
2019-03-19T19:05:35.516Z,62.90
2019-03-19T19:07:40.887Z,64.00
2019-03-19T19:09:46.228Z,64.90
2019-03-19T19:11:51.565Z,65.20
2019-03-19T19:13:56.915Z,66.40
2019-03-19T19:16:02.245Z,66.00
2019-03-19T19:18:07.591Z,67.50
2019-03-19T19:20:16.677Z,67.50
2019-03-19T19:22:22.019Z,66.60
2019-03-19T19:24:27.373Z,65.50
2019-03-19T19:26:32.734Z,64.90
2019-03-19T19:28:38.068Z,65.40
2019-03-19T19:30:43.417Z,65.20
2019-03-19T19:32:48.886Z,64.80
2019-03-19T19:34:54.227Z,65.10
2019-03-19T19:36:59.564Z,65.80
2019-03-19T19:39:07.293Z,67.00
2019-03-19T19:41:12.627Z,67.90
2019-03-19T19:43:17.972Z,68.30
2019-03-19T19:45:23.367Z,68.10
2019-03-19T19:47:28.700Z,68.20
2019-03-19T19:49:34.049Z,68.80
2019-03-19T19:51:39.396Z,70.60
2019-03-19T19:53:44.809Z,71.10
2019-03-19T19:55:50.152Z,71.20
2019-03-19T19:57:55.507Z,71.40
2019-03-19T20:00:02.128Z,71.20
2019-03-19T20:02:09.180Z,72.00
2019-03-19T20:04:14.664Z,73.20
2019-03-19T20:06:20.136Z,73.00
2019-03-19T20:08:25.480Z,72.90
2019-03-19T20:10:30.904Z,73.30
2019-03-19T20:12:36.576Z,73.00
2019-03-19T20:14:41.925Z,72.80
2019-03-19T20:16:47.323Z,72.60
2019-03-19T20:18:52.654Z,73.10
2019-03-19T20:20:58.076Z,73.60
2019-03-19T20:23:03.422Z,74.10
2019-03-19T20:25:08.765Z,74.00
2019-03-19T20:27:15.176Z,73.80
2019-03-19T20:29:20.567Z,73.80
2019-03-19T20:31:25.913Z,73.90
2019-03-19T20:33:32.320Z,74.30
2019-03-19T20:35:37.771Z,73.00
2019-03-19T20:37:43.117Z,72.40
2019-03-19T20:39:48.453Z,72.00
2019-03-19T20:41:53.871Z,71.30
2019-03-19T20:43:59.227Z,71.80
2019-03-19T20:46:04.957Z,73.50
2019-03-19T20:48:10.389Z,73.40
2019-03-19T20:50:21.724Z,73.70
2019-03-19T20:52:27.147Z,73.50
2019-03-19T20:54:32.508Z,73.50
2019-03-19T20:56:37.859Z,74.00
2019-03-19T20:58:43.906Z,74.70
2019-03-19T21:00:49.336Z,75.00
2019-03-19T21:02:54.740Z,75.70
2019-03-19T21:05:00.162Z,75.20
2019-03-19T21:07:05.636Z,76.40
2019-03-19T21:09:10.981Z,76.60
2019-03-19T21:11:16.330Z,76.30
2019-03-19T21:13:21.770Z,76.30
2019-03-19T21:15:28.310Z,76.60
2019-03-19T21:17:33.715Z,76.90
2019-03-19T21:19:39.072Z,76.50
2019-03-19T21:21:44.479Z,76.50
2019-03-19T21:23:49.816Z,76.50
2019-03-19T21:25:55.238Z,76.30
2019-03-19T21:28:00.581Z,76.00
2019-03-19T21:30:09.443Z,75.70
2019-03-19T21:32:15.968Z,76.10
2019-03-19T21:34:21.314Z,76.20
2019-03-19T21:36:26.666Z,76.40
2019-03-19T21:38:32.083Z,77.30
2019-03-19T21:40:37.418Z,77.40
2019-03-19T21:42:42.774Z,77.30
2019-03-19T21:44:48.154Z,77.40
2019-03-19T21:46:53.499Z,78.00
2019-03-19T21:48:58.904Z,78.70
2019-03-19T21:51:05.335Z,79.00
2019-03-19T21:53:10.681Z,79.30
2019-03-19T21:55:16.096Z,79.10
2019-03-19T21:57:22.532Z,79.20
2019-03-19T21:59:27.947Z,79.30
2019-03-19T22:01:33.289Z,79.40
2019-03-19T22:03:38.658Z,79.40
2019-03-19T22:05:44.167Z,78.90
2019-03-19T22:07:50.690Z,78.70
2019-03-19T22:09:56.113Z,78.40
2019-03-19T22:12:01.450Z,78.50
2019-03-19T22:14:06.875Z,78.90
2019-03-19T22:16:13.319Z,79.20
2019-03-19T22:18:18.924Z,79.30
2019-03-19T22:20:24.331Z,79.40
2019-03-19T22:22:29.684Z,79.70
2019-03-19T22:24:35.093Z,79.90
2019-03-19T22:26:40.444Z,79.90
2019-03-19T22:28:45.865Z,80.40
2019-03-19T22:30:51.198Z,80.00
2019-03-19T22:32:56.544Z,80.40
2019-03-19T22:35:01.903Z,79.90
2019-03-19T22:37:07.425Z,79.20
2019-03-19T22:39:12.763Z,79.40
2019-03-19T22:41:18.151Z,80.50
2019-03-19T22:43:25.797Z,79.20
2019-03-19T22:45:30.456Z,79.90
2019-03-19T22:47:35.814Z,80.20
2019-03-19T22:49:42.224Z,80.40
2019-03-19T22:51:47.569Z,80.50
2019-03-19T22:53:52.929Z,80.50
2019-03-19T22:55:58.292Z,80.20
2019-03-19T22:58:03.657Z,79.90
2019-03-19T23:00:14.797Z,80.30
2019-03-19T23:02:21.800Z,80.50
2019-03-19T23:04:27.642Z,80.90
2019-03-19T23:06:33.169Z,80.70
2019-03-19T23:08:38.965Z,81.10
2019-03-19T23:10:44.300Z,81.40
2019-03-19T23:12:49.690Z,80.90
2019-03-19T23:14:55.028Z,80.50
2019-03-19T23:17:00.372Z,80.40
2019-03-19T23:19:05.747Z,80.50
2019-03-19T23:21:11.076Z,80.10
2019-03-19T23:23:16.480Z,80.00
2019-03-19T23:25:21.927Z,80.00
2019-03-19T23:27:27.272Z,80.10
2019-03-19T23:29:32.688Z,80.00
2019-03-19T23:31:38.117Z,80.20
2019-03-19T23:33:44.733Z,79.80
2019-03-19T23:35:50.140Z,80.20
2019-03-19T23:37:55.584Z,80.80
2019-03-19T23:40:00.995Z,80.90
2019-03-19T23:42:06.512Z,80.90
2019-03-19T23:44:11.935Z,81.20
2019-03-19T23:46:17.344Z,80.80
2019-03-19T23:48:22.755Z,80.70
2019-03-19T23:50:28.202Z,80.70
2019-03-19T23:52:33.611Z,80.80
2019-03-19T23:54:38.951Z,80.60
2019-03-19T23:56:44.393Z,81.00
2019-03-19T23:58:49.809Z,81.90
